createdAt,value
2019-03-08T00:00:56.437Z,63.49
2019-03-08T00:06:02.384Z,63.56
2019-03-08T00:11:08.281Z,62.34
2019-03-08T00:16:14.291Z,62.42
2019-03-08T00:21:20.347Z,63.69
2019-03-08T00:26:26.857Z,63.11
2019-03-08T00:31:32.940Z,62.42
2019-03-08T00:36:39.019Z,61.88
2019-03-08T00:41:45.033Z,61.98
2019-03-08T00:46:51.948Z,62.39
2019-03-08T00:51:58.162Z,61.78
2019-03-08T00:57:04.887Z,63.49
2019-03-08T01:02:11.679Z,60.88
2019-03-08T01:07:17.691Z,62.15
2019-03-08T01:12:24.037Z,62.32
2019-03-08T01:17:30.463Z,62.26
2019-03-08T01:22:36.755Z,63.82
2019-03-08T01:28:08.779Z,64.59
2019-03-08T01:33:15.519Z,65.01
2019-03-08T01:38:21.773Z,65.60
2019-03-08T01:43:27.868Z,65.60
2019-03-08T01:48:33.940Z,65.64
2019-03-08T01:53:39.891Z,65.13
2019-03-08T01:58:45.299Z,65.50
2019-03-08T02:03:51.376Z,65.97
2019-03-08T02:08:57.300Z,66.12
2019-03-08T02:14:03.304Z,66.42
2019-03-08T02:19:09.542Z,66.52
2019-03-08T02:24:15.774Z,66.71
2019-03-08T02:29:22.299Z,67.02
2019-03-08T02:34:28.379Z,67.62
2019-03-08T02:39:34.853Z,67.74
2019-03-08T02:44:41.152Z,67.69
2019-03-08T02:49:47.170Z,68.15
2019-03-08T02:54:53.897Z,67.84
2019-03-08T03:00:00.299Z,67.67
2019-03-08T03:05:05.653Z,67.84
2019-03-08T03:10:11.829Z,67.70
2019-03-08T03:15:18.335Z,67.81
2019-03-08T03:20:24.510Z,66.75
2019-03-08T03:25:31.400Z,66.00
2019-03-08T03:30:37.742Z,64.75
2019-03-08T03:35:43.837Z,64.13
2019-03-08T03:40:50.491Z,63.67
2019-03-08T03:45:55.632Z,63.63
2019-03-08T03:51:02.282Z,64.04
2019-03-08T03:56:08.183Z,62.69
2019-03-08T04:01:28.296Z,62.36
2019-03-08T04:06:34.512Z,62.87
2019-03-08T04:11:40.828Z,62.96
2019-03-08T04:16:47.521Z,63.11
2019-03-08T04:21:53.775Z,63.38
2019-03-08T04:26:59.836Z,63.48
2019-03-08T04:32:05.883Z,63.13
2019-03-08T04:37:12.341Z,63.47
2019-03-08T04:42:18.616Z,63.94
2019-03-08T04:47:25.434Z,64.03
2019-03-08T04:52:31.759Z,64.21
2019-03-08T04:57:38.679Z,64.07
2019-03-08T05:02:45.215Z,63.66
2019-03-08T05:07:51.354Z,63.41
2019-03-08T05:12:57.520Z,63.71
2019-03-08T05:18:03.732Z,63.01
2019-03-08T05:23:09.670Z,62.97
2019-03-08T05:28:15.962Z,63.36
2019-03-08T05:33:22.235Z,63.04
2019-03-08T05:38:27.417Z,62.97
2019-03-08T05:43:33.406Z,63.27
2019-03-08T05:48:39.338Z,62.50
2019-03-08T05:53:45.589Z,62.17
2019-03-08T05:58:51.889Z,61.60
2019-03-08T06:03:58.022Z,61.61
2019-03-08T06:09:05.835Z,61.52
2019-03-08T06:14:10.658Z,62.30
2019-03-08T06:19:17.290Z,61.45
2019-03-08T06:24:23.312Z,62.09
2019-03-08T06:29:29.321Z,61.76
2019-03-08T06:34:35.560Z,61.95
2019-03-08T06:39:41.813Z,60.39
2019-03-08T06:44:48.372Z,60.37
2019-03-08T06:49:54.394Z,60.03
2019-03-08T06:55:00.770Z,59.31
2019-03-08T07:00:30.499Z,59.49
2019-03-08T07:05:36.770Z,58.36
2019-03-08T07:10:42.943Z,58.24
2019-03-08T07:15:48.883Z,58.68
2019-03-08T07:21:03.273Z,57.71
2019-03-08T07:26:27.083Z,56.32
2019-03-08T07:32:04.490Z,55.34
2019-03-08T07:37:29.663Z,54.83
2019-03-08T07:42:53.663Z,54.78
2019-03-08T07:48:22.018Z,54.94
2019-03-08T07:54:05.578Z,54.75
2019-03-08T07:59:26.277Z,53.93
2019-03-08T08:04:50.340Z,53.58
2019-03-08T08:10:21.447Z,53.10
2019-03-08T08:15:39.005Z,52.86
2019-03-08T08:21:03.307Z,52.13
2019-03-08T08:26:46.732Z,51.88
2019-03-08T08:32:17.883Z,51.92
2019-03-08T08:37:52.246Z,52.01
2019-03-08T08:43:22.840Z,51.59
2019-03-08T08:48:50.673Z,51.28
2019-03-08T08:54:18.248Z,49.25
2019-03-08T08:59:49.407Z,48.80
2019-03-08T09:05:26.520Z,49.48
2019-03-08T09:10:57.321Z,47.76
2019-03-08T09:16:22.107Z,48.13
2019-03-08T09:21:53.394Z,45.69
2019-03-08T09:27:14.768Z,45.75
2019-03-08T09:32:39.632Z,45.72
2019-03-08T09:37:59.866Z,44.72
2019-03-08T09:43:22.726Z,44.23
2019-03-08T09:48:48.849Z,43.93
2019-03-08T09:54:28.329Z,43.11
2019-03-08T10:00:02.598Z,43.59
2019-03-08T10:05:19.092Z,42.41
2019-03-08T10:10:36.457Z,41.66
2019-03-08T10:16:10.527Z,41.53
2019-03-08T10:21:53.589Z,41.34
2019-03-08T10:27:18.470Z,42.26
2019-03-08T10:32:42.190Z,41.84
2019-03-08T10:37:58.725Z,41.41
2019-03-08T10:43:10.075Z,41.81
2019-03-08T10:48:25.869Z,40.84
2019-03-08T10:53:40.185Z,40.27
2019-03-08T10:59:01.689Z,40.73
2019-03-08T11:04:25.599Z,40.91
2019-03-08T11:09:38.586Z,40.55
2019-03-08T11:15:02.868Z,41.25
2019-03-08T11:20:28.871Z,41.77
2019-03-08T11:25:52.236Z,41.75
2019-03-08T11:31:12.793Z,40.86
2019-03-08T11:36:38.107Z,41.58
2019-03-08T11:42:09.196Z,40.58
2019-03-08T11:47:39.993Z,38.28
2019-03-08T11:53:10.998Z,38.03
2019-03-08T11:58:38.919Z,38.56
2019-03-08T12:04:02.934Z,37.54
2019-03-08T12:09:51.859Z,37.47
2019-03-08T12:15:20.101Z,36.82
2019-03-08T12:20:44.887Z,36.43
2019-03-08T12:26:20.326Z,36.28
2019-03-08T12:31:45.406Z,35.47
2019-03-08T12:37:10.817Z,35.52
2019-03-08T12:42:39.037Z,36.23
2019-03-08T12:48:13.910Z,35.58
2019-03-08T12:53:51.022Z,35.84
2019-03-08T12:59:06.513Z,35.06
2019-03-08T13:04:46.529Z,35.71
2019-03-08T13:09:53.938Z,35.98
2019-03-08T13:15:02.375Z,36.49
2019-03-08T13:20:13.693Z,36.46
2019-03-08T13:25:19.815Z,36.88
2019-03-08T13:30:25.954Z,36.13
2019-03-08T13:35:32.709Z,35.58
2019-03-08T13:40:39.021Z,34.27
2019-03-08T13:45:45.655Z,34.52
2019-03-08T13:50:50.947Z,34.71
2019-03-08T13:55:57.054Z,35.37
2019-03-08T14:01:03.701Z,35.89
2019-03-08T14:06:10.335Z,35.78
2019-03-08T14:11:16.678Z,36.22
2019-03-08T14:16:22.849Z,36.30
2019-03-08T14:21:29.493Z,36.91
2019-03-08T14:26:36.075Z,37.16
2019-03-08T14:31:55.732Z,37.14
2019-03-08T14:37:01.870Z,38.11
2019-03-08T14:42:19.941Z,36.76
2019-03-08T14:47:33.342Z,36.68
2019-03-08T14:52:40.765Z,36.91
2019-03-08T14:57:47.474Z,37.13
2019-03-08T15:02:54.033Z,37.15
2019-03-08T15:08:00.523Z,37.08
2019-03-08T15:13:07.006Z,37.26
2019-03-08T15:18:14.738Z,36.48
2019-03-08T15:23:20.985Z,37.17
2019-03-08T15:28:27.006Z,37.07
2019-03-08T15:33:33.590Z,37.04
2019-03-08T15:38:39.660Z,37.65
2019-03-08T15:43:47.043Z,37.87
2019-03-08T15:48:54.831Z,39.41
2019-03-08T15:54:43.246Z,39.08
2019-03-08T15:59:49.210Z,39.50
2019-03-08T16:04:55.819Z,41.05
2019-03-08T16:10:02.235Z,40.04
2019-03-08T16:15:08.916Z,40.53
2019-03-08T16:20:16.593Z,43.03
2019-03-08T16:25:23.001Z,45.65
2019-03-08T16:30:33.932Z,48.03
2019-03-08T16:35:49.484Z,49.50
2019-03-08T16:41:25.599Z,49.95
2019-03-08T16:46:50.560Z,47.88
2019-03-08T16:52:18.730Z,43.80
2019-03-08T16:57:31.565Z,39.41
2019-03-08T17:02:59.053Z,40.80
2019-03-08T17:08:27.278Z,42.81
2019-03-08T17:13:52.313Z,44.60
2019-03-08T17:19:23.766Z,45.68
2019-03-08T17:24:47.822Z,47.35
2019-03-08T17:30:05.065Z,48.03
2019-03-08T17:35:36.400Z,49.20
2019-03-08T17:41:01.550Z,49.66
2019-03-08T17:48:27.583Z,49.92
2019-03-08T18:08:57.821Z,48.64
2019-03-08T18:14:25.162Z,35.84
2019-03-08T18:42:16.842Z,54.09
2019-03-08T18:47:40.356Z,53.81
2019-03-08T18:53:19.974Z,55.63
2019-03-08T19:00:10.255Z,54.62
2019-03-08T19:48:33.545Z,46.16
2019-03-08T19:54:04.416Z,48.37
2019-03-08T19:59:32.478Z,48.92
2019-03-08T20:02:44.087Z,48.41
2019-03-08T20:03:38.198Z,47.96
2019-03-08T20:04:38.020Z,48.29
2019-03-08T20:05:18.163Z,48.65
2019-03-08T20:06:00.343Z,47.88
2019-03-08T20:06:52.942Z,47.70
2019-03-08T20:07:52.025Z,47.64
2019-03-08T20:08:56.627Z,48.52
2019-03-08T20:10:07.780Z,48.69
2019-03-08T20:10:58.845Z,47.86
2019-03-08T20:12:00.239Z,47.28
2019-03-08T20:12:42.372Z,47.49
2019-03-08T20:13:26.587Z,47.16
2019-03-08T20:14:13.505Z,46.86
2019-03-08T20:15:06.090Z,47.39
2019-03-08T20:16:01.325Z,47.89
2019-03-08T20:16:53.825Z,47.58
2019-03-08T20:17:46.234Z,47.00
2019-03-08T20:18:37.081Z,47.19
2019-03-08T20:19:15.829Z,47.41
2019-03-08T20:20:20.820Z,48.00
2019-03-08T20:21:25.419Z,48.09
2019-03-08T20:22:17.954Z,48.38
2019-03-08T20:22:56.475Z,48.30
2019-03-08T20:23:47.529Z,48.75
2019-03-08T20:24:46.431Z,48.88
2019-03-08T20:25:51.174Z,49.08
2019-03-08T20:29:06.790Z,45.85
2019-03-08T20:29:59.093Z,42.42
2019-03-08T20:30:57.719Z,39.41
2019-03-08T20:31:53.682Z,37.78
2019-03-08T20:32:51.582Z,36.47
2019-03-08T20:33:42.645Z,35.55
2019-03-08T20:34:24.819Z,34.84
2019-03-08T20:35:17.205Z,34.34
2019-03-08T20:36:15.668Z,34.02
2019-03-08T20:37:11.201Z,33.72
2019-03-08T20:38:15.715Z,33.32
2019-03-08T20:39:06.324Z,33.07
2019-03-08T20:39:45.624Z,32.88
2019-03-08T20:40:40.874Z,32.48
2019-03-08T20:41:42.340Z,32.36
2019-03-08T20:42:38.172Z,32.23
2019-03-08T20:43:24.710Z,31.85
2019-03-08T20:44:02.155Z,31.77
2019-03-08T20:44:47.597Z,31.57
2019-03-08T20:46:03.361Z,32.47
2019-03-08T20:46:43.303Z,32.41
2019-03-08T20:47:20.545Z,32.18
2019-03-08T20:47:53.774Z,31.91
2019-03-08T20:48:26.847Z,31.87
2019-03-08T20:49:00.253Z,31.78
2019-03-08T20:49:33.321Z,31.80
2019-03-08T20:50:09.036Z,31.79
2019-03-08T20:50:42.302Z,31.64
2019-03-08T20:51:15.381Z,31.68
2019-03-08T20:51:49.157Z,31.65
2019-03-08T20:52:22.085Z,31.67
2019-03-08T20:52:55.233Z,31.88
2019-03-08T20:53:28.526Z,31.66
2019-03-08T20:59:11.709Z,29.76
2019-03-08T20:59:44.620Z,31.12
2019-03-08T21:00:18.226Z,31.31
2019-03-08T21:00:51.463Z,31.73
2019-03-08T21:02:59.108Z,31.85
2019-03-08T21:03:32.169Z,35.83
2019-03-08T21:04:05.401Z,38.02
2019-03-08T21:04:38.371Z,40.99
2019-03-08T21:05:11.981Z,42.86
2019-03-08T21:05:44.965Z,44.11
2019-03-08T21:06:18.391Z,45.31
2019-03-08T21:06:51.547Z,45.73
2019-03-08T21:07:24.896Z,45.63
2019-03-08T21:07:58.100Z,46.42
2019-03-08T21:08:31.180Z,47.03
2019-03-08T21:09:07.834Z,47.02
2019-03-08T21:09:41.397Z,47.58
2019-03-08T21:12:31.444Z,47.62
2019-03-08T21:13:05.063Z,47.80
2019-03-08T21:13:38.208Z,47.52
2019-03-08T21:14:11.155Z,47.65
2019-03-08T21:14:44.187Z,47.94
2019-03-08T21:15:25.089Z,48.15
2019-03-08T21:15:52.041Z,48.61
2019-03-08T21:16:25.080Z,48.42
2019-03-08T21:16:58.407Z,48.46
2019-03-08T21:17:31.371Z,48.99
2019-03-08T21:18:04.431Z,48.98
2019-03-08T21:23:43.569Z,49.24
2019-03-08T21:28:46.817Z,49.31
2019-03-08T21:33:49.848Z,49.76
2019-03-08T21:38:52.967Z,49.93
2019-03-08T21:43:55.911Z,50.02
2019-03-08T21:48:58.882Z,50.48
2019-03-08T21:54:01.915Z,50.23
2019-03-08T21:59:05.005Z,50.12
2019-03-08T22:04:46.115Z,49.48
2019-03-08T22:10:03.960Z,49.79
2019-03-08T22:15:07.357Z,49.58
2019-03-08T22:20:10.702Z,49.93
2019-03-08T22:25:13.776Z,50.08
2019-03-08T22:30:17.292Z,50.12
2019-03-08T22:35:20.569Z,50.42
2019-03-08T22:40:23.677Z,50.54
2019-03-08T22:45:26.820Z,51.64
2019-03-08T22:50:30.179Z,51.55
2019-03-08T22:55:33.184Z,52.39
2019-03-08T23:00:59.221Z,55.02
2019-03-08T23:06:02.425Z,57.25
2019-03-08T23:11:06.024Z,57.98
2019-03-08T23:16:09.224Z,58.17
2019-03-08T23:21:12.556Z,59.02
2019-03-08T23:26:15.705Z,59.84
2019-03-08T23:31:26.314Z,60.89
2019-03-08T23:36:29.566Z,61.37
2019-03-08T23:41:32.758Z,61.99
2019-03-08T23:46:35.988Z,62.97
2019-03-08T23:51:39.035Z,63.32
2019-03-08T23:56:42.544Z,64.08
